sensor_id;sensor_type;location;lat;lon;timestamp;P1;durP1;ratioP1;P2;durP2;ratioP2
83115;SDS011;72996;40.206;44.498;2024-02-21T00:01:39;17.08;;;8.48;;
83115;SDS011;72996;40.206;44.498;2024-02-21T00:04:05;19.98;;;8.52;;
83115;SDS011;72996;40.206;44.498;2024-02-21T00:06:31;17.60;;;7.97;;
83115;SDS011;72996;40.206;44.498;2024-02-21T00:08:57;20.38;;;9.60;;
83115;SDS011;72996;40.206;44.498;2024-02-21T00:11:23;20.38;;;10.25;;
83115;SDS011;72996;40.206;44.498;2024-02-21T00:13:48;21.67;;;11.10;;
83115;SDS011;72996;40.206;44.498;2024-02-21T00:16:16;22.00;;;10.00;;
83115;SDS011;72996;40.206;44.498;2024-02-21T00:18:42;25.30;;;11.45;;
83115;SDS011;72996;40.206;44.498;2024-02-21T00:21:08;24.23;;;9.93;;
83115;SDS011;72996;40.206;44.498;2024-02-21T00:23:34;17.10;;;8.10;;
83115;SDS011;72996;40.206;44.498;2024-02-21T00:26:00;15.27;;;7.35;;
83115;SDS011;72996;40.206;44.498;2024-02-21T00:28:25;15.40;;;6.90;;
83115;SDS011;72996;40.206;44.498;2024-02-21T00:30:51;14.68;;;6.93;;
83115;SDS011;72996;40.206;44.498;2024-02-21T00:33:18;21.50;;;9.52;;
83115;SDS011;72996;40.206;44.498;2024-02-21T00:35:44;21.85;;;8.13;;
83115;SDS011;72996;40.206;44.498;2024-02-21T00:38:10;19.75;;;8.32;;
83115;SDS011;72996;40.206;44.498;2024-02-21T00:40:36;16.35;;;7.22;;
83115;SDS011;72996;40.206;44.498;2024-02-21T00:43:01;16.52;;;7.28;;
83115;SDS011;72996;40.206;44.498;2024-02-21T00:45:27;18.55;;;7.53;;
83115;SDS011;72996;40.206;44.498;2024-02-21T00:47:53;16.90;;;7.97;;
83115;SDS011;72996;40.206;44.498;2024-02-21T00:50:19;14.98;;;7.07;;
83115;SDS011;72996;40.206;44.498;2024-02-21T00:52:44;18.27;;;7.70;;
83115;SDS011;72996;40.206;44.498;2024-02-21T00:55:10;18.63;;;8.20;;
83115;SDS011;72996;40.206;44.498;2024-02-21T00:57:36;18.15;;;7.50;;
83115;SDS011;72996;40.206;44.498;2024-02-21T01:00:04;16.75;;;7.57;;
83115;SDS011;72996;40.206;44.498;2024-02-21T01:02:30;15.85;;;7.95;;
83115;SDS011;72996;40.206;44.498;2024-02-21T01:05:00;15.68;;;7.32;;
83115;SDS011;72996;40.206;44.498;2024-02-21T01:07:27;18.48;;;7.47;;
83115;SDS011;72996;40.206;44.498;2024-02-21T01:09:53;17.17;;;7.88;;
83115;SDS011;72996;40.206;44.498;2024-02-21T01:12:18;14.40;;;6.57;;
83115;SDS011;72996;40.206;44.498;2024-02-21T01:14:44;14.98;;;6.93;;
83115;SDS011;72996;40.206;44.498;2024-02-21T01:17:11;16.95;;;7.72;;
83115;SDS011;72996;40.206;44.498;2024-02-21T01:19:37;15.65;;;7.95;;
83115;SDS011;72996;40.206;44.498;2024-02-21T01:22:03;16.27;;;7.00;;
83115;SDS011;72996;40.206;44.498;2024-02-21T01:24:29;17.10;;;7.72;;
83115;SDS011;72996;40.206;44.498;2024-02-21T01:26:55;24.20;;;8.85;;
83115;SDS011;72996;40.206;44.498;2024-02-21T01:29:21;26.80;;;10.00;;
83115;SDS011;72996;40.206;44.498;2024-02-21T01:31:46;26.77;;;10.43;;
83115;SDS011;72996;40.206;44.498;2024-02-21T01:34:12;32.70;;;12.15;;
83115;SDS011;72996;40.206;44.498;2024-02-21T01:36:38;33.75;;;11.98;;
83115;SDS011;72996;40.206;44.498;2024-02-21T01:39:04;36.90;;;12.98;;
83115;SDS011;72996;40.206;44.498;2024-02-21T01:41:30;36.22;;;12.00;;
83115;SDS011;72996;40.206;44.498;2024-02-21T01:43:56;27.40;;;10.45;;
83115;SDS011;72996;40.206;44.498;2024-02-21T01:46:22;19.05;;;8.00;;
83115;SDS011;72996;40.206;44.498;2024-02-21T01:48:48;18.63;;;7.63;;
83115;SDS011;72996;40.206;44.498;2024-02-21T01:51:14;17.10;;;6.82;;
83115;SDS011;72996;40.206;44.498;2024-02-21T01:53:42;16.45;;;7.88;;
83115;SDS011;72996;40.206;44.498;2024-02-21T01:56:09;15.60;;;6.93;;
83115;SDS011;72996;40.206;44.498;2024-02-21T01:58:36;14.82;;;6.50;;
83115;SDS011;72996;40.206;44.498;2024-02-21T02:01:04;15.20;;;6.40;;
83115;SDS011;72996;40.206;44.498;2024-02-21T02:03:30;14.05;;;6.38;;
83115;SDS011;72996;40.206;44.498;2024-02-21T02:05:56;13.55;;;6.03;;
83115;SDS011;72996;40.206;44.498;2024-02-21T02:55:25;22.27;;;8.02;;
83115;SDS011;72996;40.206;44.498;2024-02-21T02:57:52;18.40;;;7.20;;
83115;SDS011;72996;40.206;44.498;2024-02-21T03:00:18;17.35;;;7.15;;
83115;SDS011;72996;40.206;44.498;2024-02-21T03:02:46;17.00;;;6.40;;
83115;SDS011;72996;40.206;44.498;2024-02-21T03:05:14;15.88;;;6.53;;
83115;SDS011;72996;40.206;44.498;2024-02-21T03:10:07;17.40;;;6.68;;
83115;SDS011;72996;40.206;44.498;2024-02-21T03:12:34;19.38;;;6.85;;
83115;SDS011;72996;40.206;44.498;2024-02-21T03:15:00;17.05;;;6.28;;
83115;SDS011;72996;40.206;44.498;2024-02-21T03:17:26;14.00;;;5.63;;
83115;SDS011;72996;40.206;44.498;2024-02-21T03:19:54;11.38;;;5.80;;
83115;SDS011;72996;40.206;44.498;2024-02-21T03:22:25;12.30;;;5.40;;
83115;SDS011;72996;40.206;44.498;2024-02-21T03:24:50;10.98;;;5.63;;
83115;SDS011;72996;40.206;44.498;2024-02-21T03:27:16;15.98;;;6.55;;
83115;SDS011;72996;40.206;44.498;2024-02-21T03:29:42;14.85;;;7.20;;
83115;SDS011;72996;40.206;44.498;2024-02-21T03:32:08;12.93;;;6.40;;
83115;SDS011;72996;40.206;44.498;2024-02-21T03:34:34;11.65;;;6.05;;
83115;SDS011;72996;40.206;44.498;2024-02-21T03:37:00;13.10;;;6.60;;
83115;SDS011;72996;40.206;44.498;2024-02-21T03:39:26;14.00;;;5.72;;
83115;SDS011;72996;40.206;44.498;2024-02-21T03:41:52;12.18;;;7.32;;
83115;SDS011;72996;40.206;44.498;2024-02-21T03:44:17;15.82;;;6.32;;
83115;SDS011;72996;40.206;44.498;2024-02-21T03:46:43;15.90;;;7.63;;
83115;SDS011;72996;40.206;44.498;2024-02-21T03:49:08;17.77;;;7.20;;
83115;SDS011;72996;40.206;44.498;2024-02-21T03:51:34;20.17;;;6.78;;
83115;SDS011;72996;40.206;44.498;2024-02-21T03:54:00;16.13;;;8.00;;
83115;SDS011;72996;40.206;44.498;2024-02-21T03:56:26;14.73;;;6.90;;
83115;SDS011;72996;40.206;44.498;2024-02-21T03:58:51;14.88;;;6.82;;
83115;SDS011;72996;40.206;44.498;2024-02-21T04:01:17;18.63;;;7.32;;
83115;SDS011;72996;40.206;44.498;2024-02-21T04:03:43;15.02;;;7.03;;
83115;SDS011;72996;40.206;44.498;2024-02-21T04:06:09;18.92;;;7.53;;
83115;SDS011;72996;40.206;44.498;2024-02-21T04:08:35;17.75;;;9.38;;
83115;SDS011;72996;40.206;44.498;2024-02-21T04:11:00;18.17;;;8.35;;
83115;SDS011;72996;40.206;44.498;2024-02-21T04:13:26;16.55;;;7.25;;
83115;SDS011;72996;40.206;44.498;2024-02-21T04:15:52;16.73;;;8.75;;
83115;SDS011;72996;40.206;44.498;2024-02-21T04:18:17;21.40;;;7.90;;
83115;SDS011;72996;40.206;44.498;2024-02-21T04:20:43;16.02;;;7.40;;
83115;SDS011;72996;40.206;44.498;2024-02-21T04:23:09;15.30;;;7.47;;
83115;SDS011;72996;40.206;44.498;2024-02-21T04:25:34;28.45;;;10.38;;
83115;SDS011;72996;40.206;44.498;2024-02-21T04:28:01;15.90;;;8.65;;
83115;SDS011;72996;40.206;44.498;2024-02-21T04:30:26;18.13;;;7.90;;
83115;SDS011;72996;40.206;44.498;2024-02-21T04:32:52;16.00;;;8.40;;
83115;SDS011;72996;40.206;44.498;2024-02-21T04:35:17;17.25;;;7.93;;
83115;SDS011;72996;40.206;44.498;2024-02-21T04:37:43;17.90;;;7.72;;
83115;SDS011;72996;40.206;44.498;2024-02-21T04:40:09;18.67;;;8.18;;
83115;SDS011;72996;40.206;44.498;2024-02-21T04:42:36;20.17;;;8.43;;
83115;SDS011;72996;40.206;44.498;2024-02-21T04:45:02;20.95;;;9.00;;
83115;SDS011;72996;40.206;44.498;2024-02-21T04:47:28;20.52;;;8.05;;
83115;SDS011;72996;40.206;44.498;2024-02-21T04:49:53;15.13;;;7.03;;
83115;SDS011;72996;40.206;44.498;2024-02-21T04:52:19;18.40;;;7.25;;
83115;SDS011;72996;40.206;44.498;2024-02-21T04:54:45;17.95;;;8.63;;
83115;SDS011;72996;40.206;44.498;2024-02-21T04:57:10;17.80;;;9.40;;
83115;SDS011;72996;40.206;44.498;2024-02-21T04:59:36;17.27;;;8.00;;
83115;SDS011;72996;40.206;44.498;2024-02-21T05:02:02;16.83;;;8.45;;
83115;SDS011;72996;40.206;44.498;2024-02-21T05:04:28;17.48;;;8.30;;
83115;SDS011;72996;40.206;44.498;2024-02-21T05:06:53;30.27;;;10.38;;
83115;SDS011;72996;40.206;44.498;2024-02-21T05:09:19;21.42;;;8.57;;
83115;SDS011;72996;40.206;44.498;2024-02-21T05:11:46;21.73;;;7.63;;
83115;SDS011;72996;40.206;44.498;2024-02-21T05:14:11;19.67;;;7.95;;
83115;SDS011;72996;40.206;44.498;2024-02-21T05:16:38;15.82;;;7.60;;
83115;SDS011;72996;40.206;44.498;2024-02-21T05:19:04;17.10;;;7.70;;
83115;SDS011;72996;40.206;44.498;2024-02-21T05:21:30;17.08;;;7.75;;
83115;SDS011;72996;40.206;44.498;2024-02-21T05:23:56;19.48;;;7.72;;
83115;SDS011;72996;40.206;44.498;2024-02-21T05:26:22;17.45;;;7.00;;
83115;SDS011;72996;40.206;44.498;2024-02-21T05:28:49;18.15;;;7.25;;
83115;SDS011;72996;40.206;44.498;2024-02-21T05:31:15;16.80;;;7.47;;
83115;SDS011;72996;40.206;44.498;2024-02-21T05:33:44;19.75;;;7.28;;
83115;SDS011;72996;40.206;44.498;2024-02-21T05:36:11;23.25;;;7.70;;
83115;SDS011;72996;40.206;44.498;2024-02-21T05:38:37;22.05;;;10.30;;
83115;SDS011;72996;40.206;44.498;2024-02-21T05:41:03;20.13;;;8.98;;
83115;SDS011;72996;40.206;44.498;2024-02-21T05:43:29;18.92;;;9.02;;
83115;SDS011;72996;40.206;44.498;2024-02-21T05:45:55;20.98;;;8.90;;
83115;SDS011;72996;40.206;44.498;2024-02-21T05:48:21;20.48;;;8.73;;
83115;SDS011;72996;40.206;44.498;2024-02-21T05:50:48;20.75;;;9.30;;
83115;SDS011;72996;40.206;44.498;2024-02-21T05:53:14;24.70;;;9.38;;
83115;SDS011;72996;40.206;44.498;2024-02-21T05:55:40;17.83;;;8.57;;
83115;SDS011;72996;40.206;44.498;2024-02-21T05:58:06;13.98;;;7.22;;
83115;SDS011;72996;40.206;44.498;2024-02-21T06:00:32;15.57;;;8.13;;
83115;SDS011;72996;40.206;44.498;2024-02-21T06:02:58;18.52;;;7.93;;
83115;SDS011;72996;40.206;44.498;2024-02-21T06:05:24;18.02;;;9.60;;
83115;SDS011;72996;40.206;44.498;2024-02-21T06:07:50;16.75;;;8.52;;
83115;SDS011;72996;40.206;44.498;2024-02-21T06:10:15;13.48;;;6.70;;
83115;SDS011;72996;40.206;44.498;2024-02-21T06:12:41;16.88;;;7.05;;
83115;SDS011;72996;40.206;44.498;2024-02-21T06:15:07;18.88;;;9.55;;
83115;SDS011;72996;40.206;44.498;2024-02-21T06:17:33;26.45;;;11.20;;
83115;SDS011;72996;40.206;44.498;2024-02-21T06:19:59;18.08;;;7.75;;
83115;SDS011;72996;40.206;44.498;2024-02-21T06:22:25;14.95;;;7.47;;
83115;SDS011;72996;40.206;44.498;2024-02-21T06:24:51;11.60;;;6.60;;
83115;SDS011;72996;40.206;44.498;2024-02-21T06:27:16;18.73;;;7.43;;
83115;SDS011;72996;40.206;44.498;2024-02-21T06:29:42;11.63;;;6.75;;
83115;SDS011;72996;40.206;44.498;2024-02-21T06:32:08;12.75;;;6.70;;
83115;SDS011;72996;40.206;44.498;2024-02-21T06:34:33;12.75;;;6.88;;
83115;SDS011;72996;40.206;44.498;2024-02-21T06:36:59;15.80;;;6.50;;
83115;SDS011;72996;40.206;44.498;2024-02-21T06:39:25;13.10;;;6.72;;
83115;SDS011;72996;40.206;44.498;2024-02-21T06:41:50;15.18;;;7.15;;
83115;SDS011;72996;40.206;44.498;2024-02-21T06:44:16;15.73;;;7.10;;
83115;SDS011;72996;40.206;44.498;2024-02-21T06:46:43;18.67;;;7.95;;
83115;SDS011;72996;40.206;44.498;2024-02-21T06:49:08;11.68;;;6.68;;
83115;SDS011;72996;40.206;44.498;2024-02-21T06:51:34;18.70;;;8.27;;
83115;SDS011;72996;40.206;44.498;2024-02-21T06:54:00;16.33;;;7.03;;
83115;SDS011;72996;40.206;44.498;2024-02-21T06:56:26;13.93;;;6.75;;
83115;SDS011;72996;40.206;44.498;2024-02-21T06:58:54;15.25;;;6.75;;
83115;SDS011;72996;40.206;44.498;2024-02-21T07:01:21;14.55;;;7.43;;
83115;SDS011;72996;40.206;44.498;2024-02-21T07:03:46;26.65;;;9.45;;
83115;SDS011;72996;40.206;44.498;2024-02-21T07:06:12;14.77;;;7.70;;
83115;SDS011;72996;40.206;44.498;2024-02-21T07:08:38;14.88;;;7.78;;
83115;SDS011;72996;40.206;44.498;2024-02-21T07:11:04;15.90;;;7.78;;
83115;SDS011;72996;40.206;44.498;2024-02-21T07:13:30;14.65;;;8.05;;
83115;SDS011;72996;40.206;44.498;2024-02-21T07:15:57;19.25;;;8.25;;
83115;SDS011;72996;40.206;44.498;2024-02-21T07:18:22;14.00;;;7.88;;
83115;SDS011;72996;40.206;44.498;2024-02-21T07:20:50;26.65;;;14.20;;
83115;SDS011;72996;40.206;44.498;2024-02-21T07:23:16;28.40;;;14.88;;
83115;SDS011;72996;40.206;44.498;2024-02-21T07:25:42;27.80;;;15.13;;
83115;SDS011;72996;40.206;44.498;2024-02-21T07:28:08;29.17;;;15.63;;
83115;SDS011;72996;40.206;44.498;2024-02-21T07:30:33;26.35;;;15.23;;
83115;SDS011;72996;40.206;44.498;2024-02-21T07:32:59;31.58;;;16.55;;
83115;SDS011;72996;40.206;44.498;2024-02-21T07:35:25;31.35;;;15.23;;
83115;SDS011;72996;40.206;44.498;2024-02-21T07:37:50;27.95;;;14.80;;
83115;SDS011;72996;40.206;44.498;2024-02-21T07:40:16;26.27;;;14.90;;
83115;SDS011;72996;40.206;44.498;2024-02-21T07:42:42;24.10;;;13.35;;
83115;SDS011;72996;40.206;44.498;2024-02-21T07:45:08;21.60;;;11.65;;
83115;SDS011;72996;40.206;44.498;2024-02-21T07:47:35;42.65;;;16.10;;
83115;SDS011;72996;40.206;44.498;2024-02-21T07:50:02;24.05;;;12.57;;
83115;SDS011;72996;40.206;44.498;2024-02-21T07:52:32;24.35;;;11.50;;
83115;SDS011;72996;40.206;44.498;2024-02-21T07:54:57;23.83;;;12.70;;
83115;SDS011;72996;40.206;44.498;2024-02-21T07:57:23;24.88;;;13.30;;
83115;SDS011;72996;40.206;44.498;2024-02-21T07:59:49;18.25;;;11.18;;
83115;SDS011;72996;40.206;44.498;2024-02-21T08:02:15;19.25;;;9.52;;
83115;SDS011;72996;40.206;44.498;2024-02-21T08:04:40;22.60;;;10.50;;
83115;SDS011;72996;40.206;44.498;2024-02-21T08:07:07;21.73;;;11.20;;
83115;SDS011;72996;40.206;44.498;2024-02-21T08:09:33;17.77;;;10.45;;
83115;SDS011;72996;40.206;44.498;2024-02-21T08:11:58;19.13;;;10.35;;
83115;SDS011;72996;40.206;44.498;2024-02-21T08:14:24;16.75;;;8.80;;
83115;SDS011;72996;40.206;44.498;2024-02-21T08:16:50;20.27;;;10.13;;
83115;SDS011;72996;40.206;44.498;2024-02-21T08:19:18;16.27;;;10.18;;
83115;SDS011;72996;40.206;44.498;2024-02-21T08:21:44;15.95;;;8.27;;
83115;SDS011;72996;40.206;44.498;2024-02-21T08:24:12;17.48;;;8.70;;
83115;SDS011;72996;40.206;44.498;2024-02-21T08:26:40;16.23;;;8.07;;
83115;SDS011;72996;40.206;44.498;2024-02-21T08:29:06;14.45;;;7.97;;
83115;SDS011;72996;40.206;44.498;2024-02-21T08:31:32;17.67;;;8.50;;
83115;SDS011;72996;40.206;44.498;2024-02-21T08:33:59;15.82;;;8.40;;
83115;SDS011;72996;40.206;44.498;2024-02-21T08:36:38;17.35;;;9.23;;
83115;SDS011;72996;40.206;44.498;2024-02-21T08:39:03;18.25;;;9.50;;
83115;SDS011;72996;40.206;44.498;2024-02-21T08:41:33;15.75;;;8.20;;
83115;SDS011;72996;40.206;44.498;2024-02-21T08:43:59;16.98;;;8.68;;
83115;SDS011;72996;40.206;44.498;2024-02-21T08:46:25;16.00;;;8.90;;
83115;SDS011;72996;40.206;44.498;2024-02-21T08:48:52;16.73;;;8.07;;
83115;SDS011;72996;40.206;44.498;2024-02-21T08:51:18;15.43;;;7.93;;
83115;SDS011;72996;40.206;44.498;2024-02-21T08:53:45;14.30;;;7.68;;
83115;SDS011;72996;40.206;44.498;2024-02-21T08:56:10;14.10;;;7.55;;
83115;SDS011;72996;40.206;44.498;2024-02-21T08:58:36;14.13;;;7.10;;
83115;SDS011;72996;40.206;44.498;2024-02-21T09:01:05;14.27;;;7.28;;
83115;SDS011;72996;40.206;44.498;2024-02-21T09:03:35;21.67;;;8.43;;
83115;SDS011;72996;40.206;44.498;2024-02-21T09:06:01;14.18;;;7.32;;
83115;SDS011;72996;40.206;44.498;2024-02-21T09:08:27;12.20;;;6.95;;
83115;SDS011;72996;40.206;44.498;2024-02-21T09:10:53;14.75;;;7.75;;
83115;SDS011;72996;40.206;44.498;2024-02-21T09:13:19;14.45;;;7.43;;
83115;SDS011;72996;40.206;44.498;2024-02-21T09:15:44;14.05;;;7.72;;
83115;SDS011;72996;40.206;44.498;2024-02-21T09:18:10;10.73;;;7.88;;
83115;SDS011;72996;40.206;44.498;2024-02-21T09:20:36;12.63;;;7.63;;
83115;SDS011;72996;40.206;44.498;2024-02-21T09:23:01;13.68;;;7.82;;
83115;SDS011;72996;40.206;44.498;2024-02-21T09:25:27;14.50;;;7.70;;
83115;SDS011;72996;40.206;44.498;2024-02-21T09:27:55;13.90;;;8.38;;
83115;SDS011;72996;40.206;44.498;2024-02-21T09:30:23;12.23;;;7.13;;
83115;SDS011;72996;40.206;44.498;2024-02-21T09:32:48;12.93;;;7.10;;
83115;SDS011;72996;40.206;44.498;2024-02-21T09:35:14;12.80;;;7.13;;
83115;SDS011;72996;40.206;44.498;2024-02-21T09:37:40;13.23;;;7.20;;
83115;SDS011;72996;40.206;44.498;2024-02-21T09:40:06;11.63;;;7.25;;
83115;SDS011;72996;40.206;44.498;2024-02-21T09:42:39;12.90;;;6.90;;
83115;SDS011;72996;40.206;44.498;2024-02-21T09:45:09;13.50;;;7.57;;
83115;SDS011;72996;40.206;44.498;2024-02-21T09:47:50;13.90;;;6.60;;
83115;SDS011;72996;40.206;44.498;2024-02-21T09:50:40;16.35;;;7.57;;
83115;SDS011;72996;40.206;44.498;2024-02-21T09:53:09;11.57;;;6.50;;
83115;SDS011;72996;40.206;44.498;2024-02-21T09:55:37;11.27;;;7.30;;
83115;SDS011;72996;40.206;44.498;2024-02-21T09:58:05;15.52;;;8.00;;
83115;SDS011;72996;40.206;44.498;2024-02-21T10:00:32;14.50;;;7.45;;
83115;SDS011;72996;40.206;44.498;2024-02-21T10:02:58;14.32;;;8.38;;
83115;SDS011;72996;40.206;44.498;2024-02-21T10:05:24;15.80;;;9.13;;
83115;SDS011;72996;40.206;44.498;2024-02-21T10:07:50;15.65;;;7.45;;
83115;SDS011;72996;40.206;44.498;2024-02-21T10:10:17;14.35;;;7.70;;
83115;SDS011;72996;40.206;44.498;2024-02-21T10:12:53;12.88;;;7.75;;
83115;SDS011;72996;40.206;44.498;2024-02-21T10:15:26;14.25;;;8.95;;
83115;SDS011;72996;40.206;44.498;2024-02-21T10:17:58;14.50;;;7.95;;
83115;SDS011;72996;40.206;44.498;2024-02-21T10:20:25;13.60;;;7.40;;
83115;SDS011;72996;40.206;44.498;2024-02-21T10:23:00;13.30;;;7.55;;
83115;SDS011;72996;40.206;44.498;2024-02-21T10:25:28;15.10;;;8.63;;
83115;SDS011;72996;40.206;44.498;2024-02-21T10:27:54;13.65;;;7.78;;
83115;SDS011;72996;40.206;44.498;2024-02-21T10:30:19;14.82;;;7.55;;
83115;SDS011;72996;40.206;44.498;2024-02-21T10:32:55;11.82;;;6.32;;
83115;SDS011;72996;40.206;44.498;2024-02-21T10:35:33;17.02;;;7.55;;
83115;SDS011;72996;40.206;44.498;2024-02-21T10:37:59;19.17;;;10.35;;
83115;SDS011;72996;40.206;44.498;2024-02-21T10:40:28;14.43;;;8.38;;
83115;SDS011;72996;40.206;44.498;2024-02-21T10:42:59;19.27;;;8.63;;
83115;SDS011;72996;40.206;44.498;2024-02-21T10:45:30;15.75;;;8.55;;
83115;SDS011;72996;40.206;44.498;2024-02-21T10:48:06;16.02;;;9.15;;
83115;SDS011;72996;40.206;44.498;2024-02-21T10:50:36;18.05;;;8.95;;
83115;SDS011;72996;40.206;44.498;2024-02-21T10:58:39;18.90;;;9.30;;
83115;SDS011;72996;40.206;44.498;2024-02-21T11:01:05;20.35;;;9.50;;
83115;SDS011;72996;40.206;44.498;2024-02-21T11:03:32;14.00;;;7.88;;
83115;SDS011;72996;40.206;44.498;2024-02-21T11:05:58;14.95;;;9.10;;
83115;SDS011;72996;40.206;44.498;2024-02-21T11:08:25;13.77;;;7.82;;
83115;SDS011;72996;40.206;44.498;2024-02-21T11:10:56;14.30;;;7.65;;
83115;SDS011;72996;40.206;44.498;2024-02-21T11:13:30;14.20;;;7.63;;
83115;SDS011;72996;40.206;44.498;2024-02-21T11:16:08;14.65;;;8.20;;
83115;SDS011;72996;40.206;44.498;2024-02-21T11:18:38;12.38;;;7.40;;
83115;SDS011;72996;40.206;44.498;2024-02-21T11:21:04;17.13;;;7.90;;
83115;SDS011;72996;40.206;44.498;2024-02-21T11:23:31;13.65;;;7.10;;
83115;SDS011;72996;40.206;44.498;2024-02-21T11:26:06;12.88;;;7.50;;
83115;SDS011;72996;40.206;44.498;2024-02-21T11:28:33;13.68;;;7.38;;
83115;SDS011;72996;40.206;44.498;2024-02-21T11:31:08;14.75;;;8.43;;
83115;SDS011;72996;40.206;44.498;2024-02-21T11:33:39;13.50;;;7.45;;
83115;SDS011;72996;40.206;44.498;2024-02-21T11:36:05;14.00;;;8.07;;
83115;SDS011;72996;40.206;44.498;2024-02-21T11:38:31;12.20;;;6.47;;
83115;SDS011;72996;40.206;44.498;2024-02-21T11:40:56;10.23;;;6.20;;
83115;SDS011;72996;40.206;44.498;2024-02-21T11:43:25;11.05;;;6.43;;
83115;SDS011;72996;40.206;44.498;2024-02-21T11:45:51;12.30;;;6.35;;
83115;SDS011;72996;40.206;44.498;2024-02-21T11:48:25;10.98;;;6.05;;
83115;SDS011;72996;40.206;44.498;2024-02-21T11:50:54;8.77;;;5.75;;
83115;SDS011;72996;40.206;44.498;2024-02-21T11:53:21;11.90;;;6.57;;
83115;SDS011;72996;40.206;44.498;2024-02-21T11:55:46;10.98;;;6.30;;
83115;SDS011;72996;40.206;44.498;2024-02-21T11:58:12;12.68;;;6.40;;
83115;SDS011;72996;40.206;44.498;2024-02-21T12:00:38;11.88;;;6.10;;
83115;SDS011;72996;40.206;44.498;2024-02-21T12:03:04;14.48;;;7.03;;
83115;SDS011;72996;40.206;44.498;2024-02-21T12:05:30;12.32;;;6.68;;
83115;SDS011;72996;40.206;44.498;2024-02-21T12:07:57;11.77;;;6.60;;
83115;SDS011;72996;40.206;44.498;2024-02-21T12:10:23;13.68;;;6.45;;
83115;SDS011;72996;40.206;44.498;2024-02-21T12:12:49;11.40;;;6.18;;
83115;SDS011;72996;40.206;44.498;2024-02-21T12:15:17;12.20;;;6.38;;
83115;SDS011;72996;40.206;44.498;2024-02-21T12:17:44;10.13;;;5.88;;
83115;SDS011;72996;40.206;44.498;2024-02-21T12:20:10;10.38;;;6.03;;
83115;SDS011;72996;40.206;44.498;2024-02-21T12:22:43;12.57;;;6.43;;
83115;SDS011;72996;40.206;44.498;2024-02-21T12:25:18;12.10;;;7.28;;
83115;SDS011;72996;40.206;44.498;2024-02-21T12:27:47;9.13;;;5.40;;
83115;SDS011;72996;40.206;44.498;2024-02-21T12:30:14;9.90;;;4.78;;
83115;SDS011;72996;40.206;44.498;2024-02-21T12:32:40;11.00;;;5.88;;
83115;SDS011;72996;40.206;44.498;2024-02-21T12:35:06;9.77;;;5.47;;
83115;SDS011;72996;40.206;44.498;2024-02-21T12:37:33;8.48;;;5.22;;
83115;SDS011;72996;40.206;44.498;2024-02-21T12:39:58;11.00;;;5.05;;
83115;SDS011;72996;40.206;44.498;2024-02-21T12:42:24;10.07;;;5.05;;
83115;SDS011;72996;40.206;44.498;2024-02-21T12:44:51;11.40;;;5.70;;
83115;SDS011;72996;40.206;44.498;2024-02-21T12:47:18;9.98;;;5.95;;
83115;SDS011;72996;40.206;44.498;2024-02-21T12:49:45;9.90;;;5.03;;
83115;SDS011;72996;40.206;44.498;2024-02-21T12:52:11;8.30;;;3.60;;
83115;SDS011;72996;40.206;44.498;2024-02-21T12:54:38;6.97;;;4.00;;
83115;SDS011;72996;40.206;44.498;2024-02-21T12:57:04;8.52;;;4.28;;
83115;SDS011;72996;40.206;44.498;2024-02-21T12:59:29;10.40;;;5.00;;
83115;SDS011;72996;40.206;44.498;2024-02-21T13:01:55;11.43;;;5.03;;
83115;SDS011;72996;40.206;44.498;2024-02-21T13:04:21;13.40;;;6.13;;
83115;SDS011;72996;40.206;44.498;2024-02-21T13:06:48;11.50;;;6.35;;
83115;SDS011;72996;40.206;44.498;2024-02-21T13:09:14;13.38;;;7.00;;
83115;SDS011;72996;40.206;44.498;2024-02-21T13:11:40;12.82;;;6.75;;
83115;SDS011;72996;40.206;44.498;2024-02-21T13:14:06;13.10;;;6.88;;
83115;SDS011;72996;40.206;44.498;2024-02-21T13:16:32;15.07;;;8.00;;
83115;SDS011;72996;40.206;44.498;2024-02-21T13:19:04;15.20;;;7.25;;
83115;SDS011;72996;40.206;44.498;2024-02-21T13:21:30;12.93;;;6.43;;
83115;SDS011;72996;40.206;44.498;2024-02-21T13:23:56;10.70;;;6.80;;
83115;SDS011;72996;40.206;44.498;2024-02-21T13:26:22;12.95;;;6.65;;
83115;SDS011;72996;40.206;44.498;2024-02-21T13:28:48;9.32;;;6.03;;
83115;SDS011;72996;40.206;44.498;2024-02-21T13:31:14;10.63;;;5.68;;
83115;SDS011;72996;40.206;44.498;2024-02-21T13:33:41;12.40;;;6.28;;
83115;SDS011;72996;40.206;44.498;2024-02-21T13:36:07;10.75;;;6.05;;
83115;SDS011;72996;40.206;44.498;2024-02-21T13:38:33;12.60;;;6.68;;
83115;SDS011;72996;40.206;44.498;2024-02-21T13:40:59;11.80;;;7.57;;
83115;SDS011;72996;40.206;44.498;2024-02-21T13:43:25;14.98;;;7.72;;
83115;SDS011;72996;40.206;44.498;2024-02-21T13:46:00;15.00;;;6.60;;
83115;SDS011;72996;40.206;44.498;2024-02-21T13:48:35;11.02;;;6.50;;
83115;SDS011;72996;40.206;44.498;2024-02-21T13:51:01;16.00;;;7.05;;
83115;SDS011;72996;40.206;44.498;2024-02-21T13:53:27;10.93;;;6.25;;
83115;SDS011;72996;40.206;44.498;2024-02-21T13:55:53;12.35;;;6.55;;
83115;SDS011;72996;40.206;44.498;2024-02-21T13:58:19;11.52;;;6.90;;
83115;SDS011;72996;40.206;44.498;2024-02-21T14:00:46;9.95;;;5.95;;
83115;SDS011;72996;40.206;44.498;2024-02-21T14:03:11;13.35;;;6.60;;
83115;SDS011;72996;40.206;44.498;2024-02-21T14:05:37;12.02;;;6.55;;
83115;SDS011;72996;40.206;44.498;2024-02-21T14:08:07;10.52;;;6.07;;
83115;SDS011;72996;40.206;44.498;2024-02-21T14:10:33;12.45;;;5.78;;
83115;SDS011;72996;40.206;44.498;2024-02-21T14:12:59;13.80;;;7.32;;
83115;SDS011;72996;40.206;44.498;2024-02-21T14:15:25;15.95;;;7.95;;
83115;SDS011;72996;40.206;44.498;2024-02-21T14:17:51;16.08;;;8.43;;
83115;SDS011;72996;40.206;44.498;2024-02-21T14:20:17;18.40;;;8.70;;
83115;SDS011;72996;40.206;44.498;2024-02-21T14:22:42;14.98;;;6.88;;
83115;SDS011;72996;40.206;44.498;2024-02-21T14:25:08;17.08;;;7.43;;
83115;SDS011;72996;40.206;44.498;2024-02-21T14:27:34;15.50;;;7.20;;
83115;SDS011;72996;40.206;44.498;2024-02-21T14:30:02;15.38;;;7.43;;
83115;SDS011;72996;40.206;44.498;2024-02-21T14:32:28;12.82;;;6.88;;
83115;SDS011;72996;40.206;44.498;2024-02-21T14:34:54;18.27;;;8.55;;
83115;SDS011;72996;40.206;44.498;2024-02-21T14:37:19;18.90;;;8.40;;
83115;SDS011;72996;40.206;44.498;2024-02-21T14:39:46;14.05;;;7.35;;
83115;SDS011;72996;40.206;44.498;2024-02-21T14:42:12;17.88;;;8.57;;
83115;SDS011;72996;40.206;44.498;2024-02-21T14:44:38;15.70;;;8.85;;
83115;SDS011;72996;40.206;44.498;2024-02-21T14:47:04;20.70;;;9.35;;
83115;SDS011;72996;40.206;44.498;2024-02-21T14:49:30;17.13;;;8.20;;
83115;SDS011;72996;40.206;44.498;2024-02-21T14:51:55;14.75;;;7.45;;
83115;SDS011;72996;40.206;44.498;2024-02-21T14:54:21;14.65;;;8.05;;
83115;SDS011;72996;40.206;44.498;2024-02-21T14:56:48;14.13;;;6.85;;
83115;SDS011;72996;40.206;44.498;2024-02-21T14:59:14;12.95;;;6.70;;
83115;SDS011;72996;40.206;44.498;2024-02-21T15:01:41;18.90;;;8.13;;
83115;SDS011;72996;40.206;44.498;2024-02-21T15:04:07;12.63;;;5.88;;
83115;SDS011;72996;40.206;44.498;2024-02-21T15:06:33;13.48;;;5.80;;
83115;SDS011;72996;40.206;44.498;2024-02-21T15:09:01;13.63;;;7.55;;
83115;SDS011;72996;40.206;44.498;2024-02-21T15:11:28;11.27;;;6.22;;
83115;SDS011;72996;40.206;44.498;2024-02-21T15:13:53;14.90;;;7.00;;